Terminal Aerodrome Forecast
Issued by NWS

Home | Current Version | Previous Version | Text Only | Print | Product List | Glossary On
Versions: 1 2 3 4 5 6 7 8 9 10 11 12 13 14 15 16 17 18 19 20 21 22 23 24 25 26 27 28 29 30 31 32 33 34 35 36 37 38 39 40 41 42 43 44 45 46 47 48 49 50
000
FTAK31 PANC 211146 AAA
TAFADL
TAF AMD
PADL 211146Z 2112/2212 17009KT 3SM -SHSN SCT005 BKN010 OVC025
      TEMPO 2112/2116 1SM -SHSN BKN005
     FM211600 12007KT 4SM -SHSN BKN008 BKN015
     FM211900 13008KT P6SM -SHRASN SCT008 BKN015 BKN025
     FM220400 04008KT P6SM VCSH BKN025 BKN040
      AMD LTD TO CLD VIS AND WIND TIL 211600=

USA.gov is the U.S. government's official web portal to all federal, state and local government web resources and services.